Time;durP1;ratioP1;P1;durP2;ratioP2;P2;SDS_P1;SDS_P2;PMS_P1;PMS_P2;Temp;Humidity;BMP_temperature;BMP_pressure;BME280_temperature;BME280_humidity;BME280_pressure;Samples;Min_cycle;Max_cycle;Signal;HPM_P1;HPM_P2
2023/10/10 00:01:17;;;;;;;8.80;5.28;;;;;;;;;;6218989;23;20031;-88
2023/10/10 00:03:47;;;;;;;10.70;5.70;;;;;;;;;;6218602;23;20115;-88
2023/10/10 00:06:18;;;;;;;10.75;5.95;;;;;;;;;;6218895;23;20020;-89
2023/10/10 00:08:44;;;;;;;11.55;6.20;;;;;;;;;;6218849;23;20433;-88
2023/10/10 00:11:18;;;;;;;10.95;5.95;;;;;;;;;;6219186;23;20020;-89
2023/10/10 00:14:29;;;;;;;8.07;5.15;;;;;;;;;;6219248;23;20015;-89
2023/10/10 00:16:37;;;;;;;7.75;5.22;;;;;;;;;;6202705;23;20317;-89
2023/10/10 00:21:51;;;;;;;7.00;5.00;;;;;;;;;;6218919;23;20103;-89
2023/10/10 00:24:20;;;;;;;8.18;5.25;;;;;;;;;;6218659;23;20078;-88
2023/10/10 00:26:52;;;;;;;9.55;5.80;;;;;;;;;;6218924;23;20101;-89
2023/10/10 00:29:22;;;;;;;10.38;5.80;;;;;;;;;;6218781;23;20388;-88
2023/10/10 00:31:55;;;;;;;9.60;5.60;;;;;;;;;;6218472;23;20012;-88
2023/10/10 00:34:27;;;;;;;9.75;5.45;;;;;;;;;;6218974;23;20091;-88
2023/10/10 00:36:53;;;;;;;10.30;6.18;;;;;;;;;;6219080;23;20099;-89
2023/10/10 00:41:54;;;;;;;7.53;5.50;;;;;;;;;;6218779;23;20073;-88
2023/10/10 00:44:25;;;;;;;12.75;6.40;;;;;;;;;;6217776;23;20102;-89
2023/10/10 00:46:54;;;;;;;9.05;5.47;;;;;;;;;;6219270;23;20016;-89
2023/10/10 00:49:25;;;;;;;9.05;5.97;;;;;;;;;;6218760;23;20048;-89
2023/10/10 00:51:55;;;;;;;9.52;5.40;;;;;;;;;;6218873;23;20020;-89
2023/10/10 00:56:54;;;;;;;7.60;4.93;;;;;;;;;;6218690;23;20020;-89
2023/10/10 00:59:42;;;;;;;8.68;5.72;;;;;;;;;;6219424;23;20027;-89
2023/10/10 01:02:10;;;;;;;8.00;5.00;;;;;;;;;;6219580;23;20012;-89
2023/10/10 01:04:55;;;;;;;13.98;5.93;;;;;;;;;;6218857;23;20016;-89
2023/10/10 01:07:23;;;;;;;7.50;4.95;;;;;;;;;;6219555;23;20074;-89
2023/10/10 01:09:56;;;;;;;6.50;4.93;;;;;;;;;;6218751;23;20024;-89
2023/10/10 01:12:39;;;;;;;9.73;5.30;;;;;;;;;;6218804;23;20020;-89
2023/10/10 01:15:33;;;;;;;12.52;5.47;;;;;;;;;;6219358;23;20344;-89
2023/10/10 01:18:00;;;;;;;9.32;5.28;;;;;;;;;;6221366;23;20011;-89
2023/10/10 01:20:45;;;;;;;6.97;5.03;;;;;;;;;;6220401;23;20059;-89
2023/10/10 01:23:15;;;;;;;8.77;5.85;;;;;;;;;;6221121;23;20022;-88
2023/10/10 01:25:43;;;;;;;7.20;5.43;;;;;;;;;;6220219;23;20091;-88
2023/10/10 01:28:23;;;;;;;10.98;5.10;;;;;;;;;;6220441;23;20468;-88
2023/10/10 01:33:24;;;;;;;8.00;5.57;;;;;;;;;;6220532;23;20566;-89
2023/10/10 01:35:55;;;;;;;8.65;5.30;;;;;;;;;;6220449;23;20050;-88
2023/10/10 01:38:28;;;;;;;10.10;5.70;;;;;;;;;;6220152;23;20016;-88
2023/10/10 01:40:55;;;;;;;7.32;5.60;;;;;;;;;;6220128;23;20074;-88
2023/10/10 01:43:25;;;;;;;8.95;5.80;;;;;;;;;;6220152;23;20070;-88
2023/10/10 01:46:08;;;;;;;9.60;6.22;;;;;;;;;;6220146;23;20048;-89
2023/10/10 01:48:43;;;;;;;11.68;6.93;;;;;;;;;;6220416;23;20016;-89
2023/10/10 01:51:15;;;;;;;9.32;6.30;;;;;;;;;;6220322;23;20062;-89
2023/10/10 01:53:41;;;;;;;11.85;6.88;;;;;;;;;;6220168;23;20017;-88
2023/10/10 01:56:16;;;;;;;9.90;6.50;;;;;;;;;;6220124;23;20012;-88
2023/10/10 01:58:42;;;;;;;10.63;7.53;;;;;;;;;;6221172;23;20020;-88
2023/10/10 02:01:19;;;;;;;13.63;7.20;;;;;;;;;;6220025;23;20387;-88
2023/10/10 02:03:46;;;;;;;9.02;6.97;;;;;;;;;;6220750;23;20019;-88
2023/10/10 02:06:27;;;;;;;11.32;7.03;;;;;;;;;;6220265;23;20024;-88
2023/10/10 02:08:59;;;;;;;12.93;7.85;;;;;;;;;;6220155;23;20076;-88
2023/10/10 02:11:27;;;;;;;12.65;6.97;;;;;;;;;;6220012;23;20098;-88
2023/10/10 02:13:53;;;;;;;12.48;7.00;;;;;;;;;;6220122;23;20020;-88
2023/10/10 02:16:24;;;;;;;12.65;7.78;;;;;;;;;;6220019;23;20050;-89
2023/10/10 02:18:54;;;;;;;15.30;8.23;;;;;;;;;;6220573;23;20095;-88
2023/10/10 02:21:43;;;;;;;12.18;7.43;;;;;;;;;;6219999;23;20058;-88
2023/10/10 02:26:56;;;;;;;14.32;8.75;;;;;;;;;;6219441;23;20445;-89
2023/10/10 02:32:19;;;;;;;12.50;8.10;;;;;;;;;;6220853;23;20024;-89
2023/10/10 02:34:44;;;;;;;;;;;;;;;;;;6219433;23;20027;-88
2023/10/10 02:37:41;;;;;;;15.70;7.93;;;;;;;;;;6195631;23;19915;-89
2023/10/10 02:40:13;;;;;;;12.73;8.93;;;;;;;;;;6219385;23;20024;-90
2023/10/10 02:42:39;;;;;;;14.60;8.50;;;;;;;;;;6219823;23;20392;-88
2023/10/10 02:45:13;;;;;;;13.75;8.45;;;;;;;;;;6219119;23;20047;-89
2023/10/10 02:47:45;;;;;;;13.85;8.70;;;;;;;;;;6219204;23;20012;-89
2023/10/10 02:50:38;;;;;;;14.27;8.50;;;;;;;;;;6220239;23;20027;-89
2023/10/10 02:53:06;;;;;;;17.73;9.27;;;;;;;;;;6219631;23;20031;-88
2023/10/10 02:55:33;;;;;;;18.65;8.63;;;;;;;;;;6219886;23;20027;-89
2023/10/10 02:58:04;;;;;;;12.80;8.70;;;;;;;;;;6220402;23;20075;-89
2023/10/10 03:00:34;;;;;;;14.88;9.00;;;;;;;;;;6219636;23;20066;-89
2023/10/10 03:03:03;;;;;;;16.63;9.30;;;;;;;;;;6219451;23;20507;-89
2023/10/10 03:05:39;;;;;;;12.45;8.10;;;;;;;;;;6219531;23;20020;-89
2023/10/10 03:08:15;;;;;;;;;;;;;;;;;;6221225;23;20294;-89
2023/10/10 03:10:45;;;;;;;17.13;8.50;;;;;;;;;;6193957;23;20399;-89
2023/10/10 03:16:03;;;;;;;17.48;8.75;;;;;;;;;;6219216;23;20352;-89
2023/10/10 03:18:37;;;;;;;17.83;9.27;;;;;;;;;;6220129;23;20099;-89
2023/10/10 03:23:52;;;;;;;18.65;9.10;;;;;;;;;;6219363;23;20023;-88
2023/10/10 03:26:21;;;;;;;15.05;9.40;;;;;;;;;;6219437;23;20070;-89
2023/10/10 03:28:49;;;;;;;16.27;9.63;;;;;;;;;;6219597;23;20024;-89
2023/10/10 05:23:48;;;;;;;31.33;15.98;;;;;;;;;;6220452;23;20016;-89
2023/10/10 05:26:15;;;;;;;28.73;16.05;;;;;;;;;;6195396;23;20448;-90
2023/10/10 05:28:45;;;;;;;34.58;17.38;;;;;;;;;;6195341;23;20019;-89
2023/10/10 05:31:11;;;;;;;29.73;16.55;;;;;;;;;;6195404;23;20100;-89
2023/10/10 05:33:41;;;;;;;33.92;16.60;;;;;;;;;;6195229;23;20020;-89
2023/10/10 05:36:09;;;;;;;33.60;17.25;;;;;;;;;;6195452;23;20023;-89
2023/10/10 05:38:39;;;;;;;35.47;17.77;;;;;;;;;;6195968;23;20020;-88
2023/10/10 05:41:10;;;;;;;36.38;18.60;;;;;;;;;;6195235;23;20103;-89
2023/10/10 05:43:37;;;;;;;35.08;18.35;;;;;;;;;;6195537;23;20016;-89
2023/10/10 05:46:03;;;;;;;41.03;20.27;;;;;;;;;;6195266;23;20046;-89
2023/10/10 05:48:31;;;;;;;42.70;20.17;;;;;;;;;;6195679;23;20050;-89
2023/10/10 05:50:58;;;;;;;39.42;19.60;;;;;;;;;;6195209;23;20012;-89
2023/10/10 05:53:24;;;;;;;43.50;20.33;;;;;;;;;;6194960;23;20027;-89
2023/10/10 05:55:51;;;;;;;36.80;19.00;;;;;;;;;;6194746;23;20061;-89
2023/10/10 05:58:20;;;;;;;41.38;18.27;;;;;;;;;;6194949;23;20016;-89
2023/10/10 06:00:48;;;;;;;38.20;18.58;;;;;;;;;;6195050;23;20023;-89
2023/10/10 06:03:18;;;;;;;42.72;19.45;;;;;;;;;;6194479;23;20095;-89
2023/10/10 06:05:44;;;;;;;39.33;18.77;;;;;;;;;;6195784;23;20091;-89
2023/10/10 06:08:11;;;;;;;38.30;20.30;;;;;;;;;;6195091;23;20012;-89
2023/10/10 06:10:37;;;;;;;46.75;20.35;;;;;;;;;;6194769;23;20059;-90
2023/10/10 06:13:06;;;;;;;47.78;21.13;;;;;;;;;;6194660;23;20198;-89
2023/10/10 06:15:36;;;;;;;47.70;22.35;;;;;;;;;;6196967;23;20030;-88
2023/10/10 06:18:11;;;;;;;48.22;23.02;;;;;;;;;;6196654;23;20074;-88
2023/10/10 06:20:45;;;;;;;52.80;23.55;;;;;;;;;;6195037;23;20088;-90
2023/10/10 06:23:17;;;;;;;51.30;22.58;;;;;;;;;;6194733;23;20020;-89
2023/10/10 06:25:43;;;;;;;50.92;23.05;;;;;;;;;;6194833;23;20074;-89
2023/10/10 06:28:25;;;;;;;52.92;24.27;;;;;;;;;;6195618;23;20016;-90
2023/10/10 06:30:55;;;;;;;48.55;23.77;;;;;;;;;;6195341;23;20044;-89
2023/10/10 06:33:28;;;;;;;54.50;25.00;;;;;;;;;;6195311;23;20085;-89
2023/10/10 06:41:40;;;;;;;54.17;23.27;;;;;;;;;;6222322;23;20095;-88
2023/10/10 06:44:18;;;;;;;49.33;24.20;;;;;;;;;;6220342;23;20334;-88
2023/10/10 06:46:50;;;;;;;46.70;24.35;;;;;;;;;;6195336;23;20088;-90
2023/10/10 06:49:25;;;;;;;49.35;23.95;;;;;;;;;;6195835;23;20016;-90
2023/10/10 06:52:17;;;;;;;38.25;21.60;;;;;;;;;;6196085;23;20016;-90
2023/10/10 06:54:53;;;;;;;42.30;23.30;;;;;;;;;;6195370;23;20024;-90
2023/10/10 06:57:20;;;;;;;43.15;23.25;;;;;;;;;;6195712;23;20451;-90
2023/10/10 06:59:48;;;;;;;44.17;23.40;;;;;;;;;;6195646;23;20012;-89
2023/10/10 07:02:21;;;;;;;37.35;21.70;;;;;;;;;;6196211;23;20043;-88
2023/10/10 07:04:53;;;;;;;47.08;23.73;;;;;;;;;;6197854;23;20043;-90
2023/10/10 07:07:26;;;;;;;39.80;22.42;;;;;;;;;;6197479;23;20012;-89
2023/10/10 07:09:57;;;;;;;39.38;22.58;;;;;;;;;;6195126;23;20101;-89
2023/10/10 07:12:28;;;;;;;44.50;23.20;;;;;;;;;;6196407;23;20016;-89
2023/10/10 07:14:55;;;;;;;45.05;25.45;;;;;;;;;;6195623;23;20027;-90
2023/10/10 07:17:27;;;;;;;45.65;25.10;;;;;;;;;;6195378;23;20441;-89
2023/10/10 07:22:33;;;;;;;45.93;25.70;;;;;;;;;;6221174;23;20095;-90
2023/10/10 07:25:43;;;;;;;44.78;25.55;;;;;;;;;;6195615;23;20016;-90
2023/10/10 07:28:01;;;;;;;43.03;25.27;;;;;;;;;;6214552;23;20056;-90
2023/10/10 07:30:50;;;;;;;51.25;27.52;;;;;;;;;;6193713;23;20016;-89
2023/10/10 07:33:40;;;;;;;48.17;27.23;;;;;;;;;;6196204;23;20022;-89
2023/10/10 07:36:13;;;;;;;47.85;28.25;;;;;;;;;;6196351;23;20352;-89
2023/10/10 07:38:43;;;;;;;48.50;27.55;;;;;;;;;;6195999;23;20016;-90
2023/10/10 07:41:21;;;;;;;46.33;26.80;;;;;;;;;;6194934;23;20023;-89
2023/10/10 07:43:52;;;;;;;;;;;;;;;;;;6195454;23;20055;-90
2023/10/10 07:46:22;;;;;;;44.67;26.88;;;;;;;;;;6195016;23;20316;-89
2023/10/10 07:48:54;;;;;;;47.38;26.42;;;;;;;;;;6194900;23;20008;-89
2023/10/10 07:51:29;;;;;;;41.60;26.00;;;;;;;;;;6195222;23;20023;-88
2023/10/10 07:54:28;;;;;;;39.85;24.92;;;;;;;;;;6196322;23;20087;-89
2023/10/10 07:57:03;;;;;;;40.38;24.88;;;;;;;;;;6202746;23;20016;-89
2023/10/10 07:59:36;;;;;;;40.45;25.13;;;;;;;;;;6197828;23;20020;-90
2023/10/10 08:02:19;;;;;;;39.90;24.05;;;;;;;;;;6195861;23;20060;-90
2023/10/10 08:04:50;;;;;;;37.03;23.63;;;;;;;;;;6194422;23;20020;-89
2023/10/10 08:07:21;;;;;;;34.60;23.98;;;;;;;;;;6195536;23;20020;-89
2023/10/10 08:09:48;;;;;;;40.10;24.42;;;;;;;;;;6192665;23;20023;-90
2023/10/10 08:12:29;;;;;;;39.65;25.17;;;;;;;;;;6221869;23;20026;-90
2023/10/10 08:15:25;;;;;;;39.38;25.02;;;;;;;;;;6195257;23;20012;-90
2023/10/10 08:18:11;;;;;;;41.38;24.30;;;;;;;;;;6194986;23;20056;-89
2023/10/10 08:23:12;;;;;;;38.97;24.67;;;;;;;;;;6220606;23;20023;-89
2023/10/10 08:25:38;;;;;;;37.95;24.45;;;;;;;;;;6194910;23;20027;-90
2023/10/10 08:28:04;;;;;;;41.03;24.95;;;;;;;;;;6197405;23;20062;-89
2023/10/10 08:30:31;;;;;;;41.65;24.50;;;;;;;;;;6196489;23;20016;-88
2023/10/10 08:32:58;;;;;;;39.15;25.23;;;;;;;;;;6197007;23;20012;-88
2023/10/10 08:35:27;;;;;;;40.08;24.45;;;;;;;;;;6196242;23;20090;-91
2023/10/10 08:37:57;;;;;;;40.35;25.33;;;;;;;;;;6197461;23;20023;-92
2023/10/10 08:40:23;;;;;;;40.40;24.83;;;;;;;;;;6196370;23;20086;-88
2023/10/10 08:42:52;;;;;;;39.80;24.80;;;;;;;;;;6195681;23;20020;-89
2023/10/10 08:45:25;;;;;;;42.67;25.65;;;;;;;;;;6196152;23;20016;-88
2023/10/10 08:48:01;;;;;;;39.75;25.15;;;;;;;;;;6196945;23;20016;-89
2023/10/10 08:50:36;;;;;;;38.45;25.63;;;;;;;;;;6195458;23;20021;-90
2023/10/10 08:53:03;;;;;;;39.75;25.00;;;;;;;;;;6195833;23;20435;-89
2023/10/10 08:55:29;;;;;;;40.30;25.95;;;;;;;;;;6195820;23;20016;-89
2023/10/10 08:57:56;;;;;;;40.40;25.83;;;;;;;;;;6196609;23;20019;-90
2023/10/10 09:00:28;;;;;;;37.78;25.33;;;;;;;;;;6195834;23;20090;-89
2023/10/10 09:03:00;;;;;;;41.05;25.40;;;;;;;;;;6194696;23;20099;-89
2023/10/10 09:05:52;;;;;;;41.10;25.52;;;;;;;;;;6195666;23;20016;-88
2023/10/10 09:08:26;;;;;;;44.30;27.00;;;;;;;;;;6180314;23;20348;-89
2023/10/10 09:10:58;;;;;;;39.97;26.60;;;;;;;;;;6166060;23;20054;-89
2023/10/10 09:13:31;;;;;;;40.63;26.50;;;;;;;;;;6165254;23;20096;-89
2023/10/10 09:16:13;;;;;;;42.17;26.25;;;;;;;;;;6166600;23;20070;-87
2023/10/10 09:18:39;;;;;;;43.20;27.25;;;;;;;;;;6164129;23;20020;-88
2023/10/10 09:21:19;;;;;;;43.80;27.42;;;;;;;;;;6166744;23;20017;-88
2023/10/10 09:24:07;;;;;;;41.35;25.60;;;;;;;;;;6166185;23;20457;-88
2023/10/10 09:26:36;;;;;;;42.38;26.60;;;;;;;;;;6190534;23;20072;-88
2023/10/10 09:29:15;;;;;;;42.03;25.60;;;;;;;;;;6167762;23;20024;-86
2023/10/10 09:31:45;;;;;;;41.50;25.65;;;;;;;;;;6166818;23;20453;-87
2023/10/10 09:34:18;;;;;;;39.88;26.42;;;;;;;;;;6166419;23;20135;-87
2023/10/10 09:36:50;;;;;;;42.40;27.60;;;;;;;;;;6174060;23;20024;-88
2023/10/10 09:39:36;;;;;;;44.17;27.77;;;;;;;;;;6174227;23;20020;-88
2023/10/10 09:42:07;;;;;;;41.45;25.95;;;;;;;;;;6167012;23;20016;-89
2023/10/10 09:45:18;;;;;;;44.17;26.75;;;;;;;;;;6166350;23;20032;-87
2023/10/10 09:47:56;;;;;;;42.63;27.10;;;;;;;;;;6190638;23;20026;-89
2023/10/10 09:50:37;;;;;;;40.45;26.13;;;;;;;;;;6165825;23;20013;-89
2023/10/10 09:53:19;;;;;;;39.13;25.45;;;;;;;;;;6164379;23;20016;-88
2023/10/10 09:55:53;;;;;;;40.90;25.95;;;;;;;;;;6165369;23;20074;-88
2023/10/10 09:58:29;;;;;;;41.15;25.60;;;;;;;;;;6165679;23;20016;-89
2023/10/10 10:01:44;;;;;;;;;;;;;;;;;;;;;
2023/10/10 10:04:28;;;;;;;38.47;25.75;;;;;;;;;;6218069;23;20051;-88
2023/10/10 10:07:18;;;;;;;38.95;25.70;;;;;;;;;;6166189;23;20095;-89
2023/10/10 10:10:20;;;;;;;37.00;26.30;;;;;;;;;;6208546;23;20495;-90
2023/10/10 10:20:20;;;;;;;41.00;25.60;;;;;;;;;;6225443;23;20056;-88
2023/10/10 10:23:33;;;;;;;38.70;26.42;;;;;;;;;;6107052;23;20071;-89
2023/10/10 10:30:07;;;;;;;;;;;;;;;;;;;;;
2023/10/10 10:33:12;;;;;;;36.85;24.45;;;;;;;;;;6160813;23;20021;-89
2023/10/10 10:36:06;;;;;;;36.03;24.00;;;;;;;;;;6162315;23;20013;-88
2023/10/10 11:53:46;;;;;;;35.58;21.23;;;;;;;;;;6222306;23;20046;-90
2023/10/10 14:18:51;;;;;;;45.35;31.23;;;;;;;;;;5777931;24;20018;-86
2023/10/10 14:24:32;;;;;;;47.60;33.15;;;;;;;;;;5943495;23;20024;-88
2023/10/10 14:34:01;;;;;;;;;;;;;;;;;;;;;
2023/10/10 14:37:05;;;;;;;44.40;30.25;;;;;;;;;;6011682;23;20023;-88
2023/10/10 14:39:51;;;;;;;43.13;31.35;;;;;;;;;;6048382;23;20064;-87
2023/10/10 14:42:21;;;;;;;45.78;31.92;;;;;;;;;;6042798;23;20530;-89
2023/10/10 14:48:33;;;;;;;46.25;30.45;;;;;;;;;;6065790;23;20050;-87
2023/10/10 14:51:23;;;;;;;45.05;31.23;;;;;;;;;;6044662;23;20019;-88
2023/10/10 14:57:02;;;;;;;43.63;29.65;;;;;;;;;;6212806;23;20074;-88
2023/10/10 14:59:42;;;;;;;46.20;31.25;;;;;;;;;;6195586;23;20400;-87
2023/10/10 15:02:16;;;;;;;48.20;32.28;;;;;;;;;;6196364;23;20104;-88
2023/10/10 15:05:04;;;;;;;45.55;31.90;;;;;;;;;;6195171;23;20085;-87
2023/10/10 15:08:08;;;;;;;42.63;30.50;;;;;;;;;;6195123;23;20019;-88
2023/10/10 15:10:46;;;;;;;41.00;28.85;;;;;;;;;;6122815;23;20028;-86
2023/10/10 15:13:47;;;;;;;44.60;30.20;;;;;;;;;;6194678;23;20067;-86
2023/10/10 15:23:00;;;;;;;42.45;30.52;;;;;;;;;;6125091;23;20025;-88
2023/10/10 15:25:38;;;;;;;45.17;30.33;;;;;;;;;;6103794;23;20027;-88
2023/10/10 15:28:08;;;;;;;42.33;28.52;;;;;;;;;;6103520;23;20104;-86
2023/10/10 15:30:41;;;;;;;41.42;28.80;;;;;;;;;;6103630;23;20104;-85
2023/10/10 15:33:17;;;;;;;;;;;;;;;;;;6124551;23;20018;-87
2023/10/10 15:35:52;;;;;;;42.45;29.27;;;;;;;;;;6103578;23;20341;-91
2023/10/10 15:38:29;;;;;;;38.50;27.95;;;;;;;;;;6194603;23;20013;-88
2023/10/10 15:41:21;;;;;;;41.03;28.42;;;;;;;;;;6204366;23;20011;-86
2023/10/10 15:47:04;;;;;;;41.42;27.55;;;;;;;;;;6218092;23;20020;-86
2023/10/10 15:50:50;;;;;;;;;;;;;;;;;;;;;
2023/10/10 15:56:26;;;;;;;36.30;25.67;;;;;;;;;;6204068;23;20020;-87
2023/10/10 15:59:32;;;;;;;38.05;26.02;;;;;;;;;;6114185;23;20036;-87
2023/10/10 16:02:01;;;;;;;42.78;27.13;;;;;;;;;;6175084;23;20103;-88
2023/10/10 16:04:31;;;;;;;42.95;27.20;;;;;;;;;;6193376;23;20012;-90
2023/10/10 16:09:56;;;;;;;33.55;26.13;;;;;;;;;;6124218;23;20029;-88
2023/10/10 16:12:47;;;;;;;39.70;26.00;;;;;;;;;;6176136;23;20016;-89
2023/10/10 16:15:33;;;;;;;36.10;24.92;;;;;;;;;;6191686;23;20023;-89
2023/10/10 16:18:17;;;;;;;37.83;26.25;;;;;;;;;;6194977;23;20012;-89
2023/10/10 16:21:04;;;;;;;41.00;26.57;;;;;;;;;;6193774;23;20012;-89
2023/10/10 16:26:35;;;;;;;35.53;25.20;;;;;;;;;;6179815;23;20025;-87
2023/10/10 16:29:42;;;;;;;37.40;25.40;;;;;;;;;;6163535;23;20023;-86
2023/10/10 16:32:19;;;;;;;37.85;25.05;;;;;;;;;;6162339;23;20043;-85
2023/10/10 16:38:08;;;;;;;37.97;25.63;;;;;;;;;;6215808;23;20456;-86
2023/10/10 16:41:01;;;;;;;36.17;25.42;;;;;;;;;;6214464;23;20314;-90
2023/10/10 16:43:34;;;;;;;36.67;24.95;;;;;;;;;;6160125;23;20024;-84
2023/10/10 16:46:10;;;;;;;33.00;24.02;;;;;;;;;;6161475;23;20421;-85
2023/10/10 16:48:48;;;;;;;35.55;25.73;;;;;;;;;;6164834;23;20086;-84
2023/10/10 16:51:16;;;;;;;38.10;25.17;;;;;;;;;;6164088;23;20016;-85
2023/10/10 16:53:44;;;;;;;36.67;25.30;;;;;;;;;;6163593;23;20024;-85
2023/10/10 16:56:19;;;;;;;38.17;23.92;;;;;;;;;;6164788;23;20008;-85
2023/10/10 16:58:54;;;;;;;30.92;22.95;;;;;;;;;;6163225;23;20025;-84
2023/10/10 17:01:20;;;;;;;32.85;23.27;;;;;;;;;;6163430;23;20012;-84
2023/10/10 17:03:58;;;;;;;34.88;24.33;;;;;;;;;;6163497;23;20023;-85
2023/10/10 17:06:25;;;;;;;32.25;23.55;;;;;;;;;;6163187;23;20017;-84
2023/10/10 17:09:03;;;;;;;32.60;22.20;;;;;;;;;;6163466;23;20029;-84
2023/10/10 17:11:35;;;;;;;33.15;22.38;;;;;;;;;;6164891;23;20057;-84
2023/10/10 17:14:08;;;;;;;34.70;23.27;;;;;;;;;;6161755;23;20029;-85
2023/10/10 17:16:35;;;;;;;32.03;22.17;;;;;;;;;;6166508;23;20013;-86
2023/10/10 17:19:04;;;;;;;32.10;21.10;;;;;;;;;;6168437;23;20437;-84
2023/10/10 17:21:30;;;;;;;32.28;21.58;;;;;;;;;;6167695;23;20075;-85
2023/10/10 17:23:56;;;;;;;29.48;21.20;;;;;;;;;;6167063;23;20017;-85
2023/10/10 17:26:26;;;;;;;30.08;20.20;;;;;;;;;;6166529;23;20024;-85
2023/10/10 17:28:59;;;;;;;31.23;20.75;;;;;;;;;;6167458;23;20043;-86
2023/10/10 17:31:26;;;;;;;31.05;21.23;;;;;;;;;;6192617;23;20022;-87
2023/10/10 17:33:56;;;;;;;28.83;19.85;;;;;;;;;;6193237;23;20021;-86
2023/10/10 17:36:23;;;;;;;30.05;19.85;;;;;;;;;;6167706;23;20027;-86
2023/10/10 17:38:52;;;;;;;32.13;20.00;;;;;;;;;;6167292;23;20017;-85
2023/10/10 17:41:21;;;;;;;27.73;19.55;;;;;;;;;;6192168;23;20012;-86
2023/10/10 17:43:50;;;;;;;29.77;18.75;;;;;;;;;;6192103;23;20021;-87
2023/10/10 17:46:16;;;;;;;32.13;21.25;;;;;;;;;;6189765;23;20026;-85
2023/10/10 17:48:46;;;;;;;29.48;19.88;;;;;;;;;;6192682;23;20088;-85
2023/10/10 17:51:15;;;;;;;28.52;19.60;;;;;;;;;;6190543;23;20511;-85
2023/10/10 17:53:41;;;;;;;29.23;20.00;;;;;;;;;;6217290;23;20021;-86
2023/10/10 17:56:12;;;;;;;27.95;19.30;;;;;;;;;;6169763;23;20012;-84
2023/10/10 17:58:38;;;;;;;29.75;19.23;;;;;;;;;;6195013;23;20013;-85
2023/10/10 18:01:09;;;;;;;27.67;17.75;;;;;;;;;;6192889;23;20027;-85
2023/10/10 18:03:35;;;;;;;24.45;16.85;;;;;;;;;;6166356;23;20041;-85
2023/10/10 18:06:02;;;;;;;24.95;16.40;;;;;;;;;;6190492;23;20465;-87
2023/10/10 18:08:28;;;;;;;26.20;15.88;;;;;;;;;;6164690;23;20446;-87
2023/10/10 18:11:02;;;;;;;25.00;16.63;;;;;;;;;;6189351;23;20012;-87
2023/10/10 18:13:28;;;;;;;24.52;14.85;;;;;;;;;;6165440;23;20017;-87
2023/10/10 18:15:56;;;;;;;19.83;14.10;;;;;;;;;;6216587;23;20144;-90
2023/10/10 18:18:22;;;;;;;22.63;14.05;;;;;;;;;;6191340;23;20044;-85
2023/10/10 18:20:49;;;;;;;20.77;13.70;;;;;;;;;;6190845;23;20096;-85
2023/10/10 18:23:16;;;;;;;19.85;13.50;;;;;;;;;;6166640;23;20020;-85
2023/10/10 18:25:42;;;;;;;21.08;13.65;;;;;;;;;;6189703;23;20092;-84
2023/10/10 18:28:08;;;;;;;20.00;15.32;;;;;;;;;;6197481;23;20020;-86
2023/10/10 18:30:38;;;;;;;20.58;13.93;;;;;;;;;;6197151;23;20012;-86
2023/10/10 18:33:19;;;;;;;21.17;15.23;;;;;;;;;;6197846;23;20102;-85
2023/10/10 18:35:47;;;;;;;22.15;15.13;;;;;;;;;;6197675;23;20100;-86
2023/10/10 18:38:13;;;;;;;23.52;13.68;;;;;;;;;;6222741;23;20042;-87
2023/10/10 18:40:40;;;;;;;20.02;14.88;;;;;;;;;;6197440;23;20077;-85
2023/10/10 18:43:07;;;;;;;24.10;16.05;;;;;;;;;;6196732;23;20016;-85
2023/10/10 18:45:37;;;;;;;21.98;15.35;;;;;;;;;;6196881;23;20020;-86
2023/10/10 18:48:03;;;;;;;23.48;17.52;;;;;;;;;;6196269;23;20036;-85
2023/10/10 18:50:29;;;;;;;22.98;15.73;;;;;;;;;;6195744;23;20026;-86
2023/10/10 18:53:01;;;;;;;20.30;15.85;;;;;;;;;;6248391;23;20313;-85
2023/10/10 18:55:27;;;;;;;25.98;17.48;;;;;;;;;;6196247;23;20016;-86
2023/10/10 18:57:59;;;;;;;22.67;17.67;;;;;;;;;;6195355;23;20019;-85
2023/10/10 19:00:30;;;;;;;21.08;15.93;;;;;;;;;;6220969;23;20031;-85
2023/10/10 19:02:57;;;;;;;32.13;18.00;;;;;;;;;;6221052;23;20024;-85
2023/10/10 19:05:27;;;;;;;23.55;16.70;;;;;;;;;;6222233;23;20465;-85
2023/10/10 19:07:57;;;;;;;25.02;17.60;;;;;;;;;;6196199;23;20095;-85
2023/10/10 19:10:25;;;;;;;26.25;17.73;;;;;;;;;;6195805;23;20095;-85
2023/10/10 19:12:52;;;;;;;24.95;17.52;;;;;;;;;;6194957;23;20078;-86
2023/10/10 19:15:18;;;;;;;24.25;17.85;;;;;;;;;;6194035;23;20016;-86
2023/10/10 19:17:46;;;;;;;25.30;17.75;;;;;;;;;;6194070;23;20022;-86
2023/10/10 19:20:17;;;;;;;24.30;17.30;;;;;;;;;;6194563;23;20020;-86
2023/10/10 19:22:46;;;;;;;24.23;17.67;;;;;;;;;;6193869;23;20380;-86
2023/10/10 19:25:16;;;;;;;26.30;18.30;;;;;;;;;;6188762;23;20027;-86
2023/10/10 19:27:49;;;;;;;29.25;18.73;;;;;;;;;;6190282;23;20028;-87
2023/10/10 19:30:16;;;;;;;26.23;18.38;;;;;;;;;;6195119;23;20023;-85
2023/10/10 19:32:52;;;;;;;28.02;18.38;;;;;;;;;;6195358;23;20091;-86
2023/10/10 19:35:20;;;;;;;27.83;18.23;;;;;;;;;;6195228;23;20094;-85
2023/10/10 19:37:50;;;;;;;26.73;18.55;;;;;;;;;;6194515;23;20361;-86
2023/10/10 19:40:20;;;;;;;25.10;18.65;;;;;;;;;;6195070;23;20100;-86
2023/10/10 19:42:50;;;;;;;26.70;18.33;;;;;;;;;;6194392;23;20047;-84
2023/10/10 19:45:23;;;;;;;26.45;18.25;;;;;;;;;;6194053;23;20048;-85
2023/10/10 19:48:02;;;;;;;28.98;20.27;;;;;;;;;;6194053;23;20381;-86
2023/10/10 19:50:37;;;;;;;29.38;18.40;;;;;;;;;;6194145;23;20404;-86
2023/10/10 19:53:03;;;;;;;29.33;18.92;;;;;;;;;;6194026;23;20441;-85
2023/10/10 19:55:33;;;;;;;26.17;20.02;;;;;;;;;;6193850;23;20385;-86
2023/10/10 19:58:02;;;;;;;31.42;18.98;;;;;;;;;;6194022;23;20108;-85
2023/10/10 20:00:30;;;;;;;27.20;20.65;;;;;;;;;;6193688;23;20503;-85
2023/10/10 20:03:00;;;;;;;26.60;18.98;;;;;;;;;;6193997;23;20016;-85
2023/10/10 20:05:27;;;;;;;28.25;19.73;;;;;;;;;;6193865;23;20358;-85
2023/10/10 20:07:53;;;;;;;29.13;20.15;;;;;;;;;;6194268;23;20444;-85
2023/10/10 20:10:23;;;;;;;27.13;17.63;;;;;;;;;;6194002;23;20016;-86
2023/10/10 20:12:56;;;;;;;27.65;18.38;;;;;;;;;;6193724;23;20497;-88
2023/10/10 20:15:29;;;;;;;27.33;19.00;;;;;;;;;;6193841;23;20023;-88
2023/10/10 20:17:57;;;;;;;23.27;18.42;;;;;;;;;;6193700;23;20024;-88
2023/10/10 20:20:25;;;;;;;24.50;17.70;;;;;;;;;;6193406;23;20078;-88
2023/10/10 20:23:00;;;;;;;26.05;18.08;;;;;;;;;;6192529;23;20012;-86
2023/10/10 20:25:31;;;;;;;22.85;17.60;;;;;;;;;;6194243;23;20506;-88
2023/10/10 20:28:07;;;;;;;27.67;17.13;;;;;;;;;;6194064;23;20046;-87
2023/10/10 20:30:59;;;;;;;23.10;16.88;;;;;;;;;;6194157;23;20016;-86
2023/10/10 20:33:25;;;;;;;23.00;15.85;;;;;;;;;;6175535;23;20012;-86
2023/10/10 20:36:00;;;;;;;21.98;16.60;;;;;;;;;;6193458;23;20023;-86
2023/10/10 20:38:45;;;;;;;22.33;14.95;;;;;;;;;;6184948;23;20419;-86
2023/10/10 20:41:14;;;;;;;24.75;14.60;;;;;;;;;;6193450;23;20012;-87
2023/10/10 20:43:41;;;;;;;21.85;13.50;;;;;;;;;;6192641;23;20020;-86
2023/10/10 20:46:07;;;;;;;19.60;14.10;;;;;;;;;;6192685;23;20054;-87
2023/10/10 20:48:33;;;;;;;17.92;13.18;;;;;;;;;;6193641;23;20019;-86
2023/10/10 20:51:02;;;;;;;16.85;11.85;;;;;;;;;;6194641;23;20035;-91
2023/10/10 20:53:29;;;;;;;16.92;12.73;;;;;;;;;;6193213;23;20020;-87
2023/10/10 20:55:55;;;;;;;17.63;10.98;;;;;;;;;;6193083;23;20016;-86
2023/10/10 20:58:22;;;;;;;18.48;11.85;;;;;;;;;;6193219;23;20042;-86
2023/10/10 21:00:48;;;;;;;22.83;12.43;;;;;;;;;;6193293;23;20183;-86
2023/10/10 21:03:15;;;;;;;17.13;11.43;;;;;;;;;;6193547;23;20016;-84
2023/10/10 21:05:44;;;;;;;18.98;12.25;;;;;;;;;;6218091;23;20097;-83
2023/10/10 21:08:10;;;;;;;16.70;11.65;;;;;;;;;;6193479;23;20039;-85
2023/10/10 21:10:40;;;;;;;16.13;10.90;;;;;;;;;;6193246;23;20024;-85
2023/10/10 21:13:06;;;;;;;24.25;12.90;;;;;;;;;;6193124;23;20016;-84
2023/10/10 21:15:32;;;;;;;22.25;11.77;;;;;;;;;;6217692;23;20059;-83
2023/10/10 21:17:58;;;;;;;19.33;12.23;;;;;;;;;;6218671;23;20050;-83
2023/10/10 21:20:27;;;;;;;16.33;11.07;;;;;;;;;;6218010;23;20019;-83
2023/10/10 21:22:54;;;;;;;15.57;11.00;;;;;;;;;;6193473;23;20020;-83
2023/10/10 21:25:20;;;;;;;16.55;10.73;;;;;;;;;;6219257;23;20020;-83
2023/10/10 21:27:54;;;;;;;17.20;10.48;;;;;;;;;;6193391;23;20032;-83
2023/10/10 21:30:20;;;;;;;17.13;10.57;;;;;;;;;;6192999;23;20008;-83
2023/10/10 21:32:49;;;;;;;17.08;10.13;;;;;;;;;;6194070;23;20031;-83
2023/10/10 21:35:19;;;;;;;16.30;10.90;;;;;;;;;;6247154;23;20016;-83
2023/10/10 21:37:48;;;;;;;16.08;10.23;;;;;;;;;;6195150;23;20098;-84
2023/10/10 21:40:20;;;;;;;17.75;10.95;;;;;;;;;;6194955;23;20442;-84
2023/10/10 21:42:55;;;;;;;18.48;10.68;;;;;;;;;;6195262;23;20023;-83
2023/10/10 21:45:22;;;;;;;17.90;10.30;;;;;;;;;;6194487;23;20012;-83
2023/10/10 21:47:49;;;;;;;18.77;10.27;;;;;;;;;;6194866;23;20047;-84
2023/10/10 21:50:16;;;;;;;17.45;10.43;;;;;;;;;;6194038;23;20074;-83
2023/10/10 21:52:51;;;;;;;16.30;10.43;;;;;;;;;;6194974;23;20425;-84
2023/10/10 21:55:20;;;;;;;18.38;11.35;;;;;;;;;;6194765;23;20448;-84